Disclaimer

Please do not use the information listed here in-flight or in-navigation, as they are not provided to us by the airports but are provided by volunteers, so they might be outdated.

Search


Regions


Airport information page

Radio informations:
LA PAZ TWR - 118.1 MHz
Automatic Terminal Information Service (ATIS) - 127.9 MHz
LA PAZ APP - 120.6 MHz

Airport informations:
Latitude: 24° 04' 21.70" N
Longitude: 110° 21' 44.91" W
Elevation: 69 feet - 21 meters
Operating hours: Remarks
Operating agency: Civil government, landing fees and diplomatic clearance may be required
Timezone: UTC-7(-6DT) - First Sunday in April to the last Saturday in October
Fuel: Jet A1, without icing nhibitor.

Runway information:
18/36 - 8202 x 148 feet< - >2500 x 45 meters

Recent METARs:
MMLP 162144Z 01009KT 10SM FEW040 BKN220 26/11 A2995 RMK 8/108
MMLP 162242Z 35009KT 10SM FEW040 BKN220 26/12 A2995 RMK 8/408
MMLP 162242Z 35009KT 10SM FEW040 BKN220 26/12 A2995 RMK 8/408

Airport on the map: